Time;durP1;ratioP1;P1;durP2;ratioP2;P2;SDS_P1;SDS_P2;PMS_P1;PMS_P2;Temp;Humidity;BMP_temperature;BMP_pressure;BME280_temperature;BME280_humidity;BME280_pressure;Samples;Min_cycle;Max_cycle;Signal;HPM_P1;HPM_P2
2023/08/13 00:00:55;;;;;;;6.00;4.20;;;;;;;-145.00;61.30;72928.44;5002943;28;20038;-74
2023/08/13 00:03:23;;;;;;;6.35;4.40;;;;;;;-145.00;61.26;72936.78;4972496;28;20061;-75
2023/08/13 00:05:50;;;;;;;5.68;4.10;;;;;;;-145.00;61.45;72938.88;5016767;28;20460;-76
2023/08/13 00:08:16;;;;;;;6.15;4.30;;;;;;;-145.00;61.71;72938.88;5015009;28;20056;-76
2023/08/13 00:10:43;;;;;;;8.55;4.68;;;;;;;-145.00;61.91;72945.09;4955220;28;20046;-76
2023/08/13 00:13:10;;;;;;;8.93;4.38;;;;;;;-145.00;62.21;72955.50;4954217;28;20055;-76
2023/08/13 00:15:37;;;;;;;8.60;4.45;;;;;;;-145.00;62.43;72965.94;4952683;28;20129;-76
2023/08/13 00:18:04;;;;;;;6.32;3.97;;;;;;;-145.00;62.14;72972.16;4924981;28;20070;-73
2023/08/13 00:20:32;;;;;;;8.63;4.50;;;;;;;-145.00;62.59;72984.66;4886325;28;20047;-74
2023/08/13 00:23:02;;;;;;;6.25;4.00;;;;;;;-145.00;62.38;72980.50;5007266;28;20056;-74
2023/08/13 00:25:28;;;;;;;5.50;4.25;;;;;;;-145.00;62.66;72993.00;5008744;28;20050;-75
2023/08/13 00:27:55;;;;;;;7.10;4.35;;;;;;;-145.00;62.20;72974.25;4993571;28;20045;-74
2023/08/13 00:30:21;;;;;;;8.30;4.95;;;;;;;-145.00;62.33;72984.66;5021449;28;20057;-75
2023/08/13 00:32:48;;;;;;;7.30;4.53;;;;;;;-145.00;62.64;72990.91;5029540;28;20052;-75
2023/08/13 00:35:14;;;;;;;5.78;4.20;;;;;;;-145.00;63.42;73005.47;5011269;28;20056;-75
2023/08/13 00:37:42;;;;;;;6.50;4.30;;;;;;;-145.00;63.09;72997.16;5013353;28;20504;-75
2023/08/13 00:40:11;;;;;;;5.55;4.35;;;;;;;-145.00;62.17;72980.50;5012857;28;20057;-75
2023/08/13 00:42:37;;;;;;;6.00;4.53;;;;;;;-145.00;61.90;72963.84;5013079;28;20048;-75
2023/08/13 00:45:04;;;;;;;7.03;4.60;;;;;;;-145.00;61.97;72963.84;5012213;28;20399;-75
2023/08/13 00:47:31;;;;;;;6.47;4.53;;;;;;;-145.00;61.80;72953.44;5009570;28;20053;-73
2023/08/13 00:49:58;;;;;;;6.50;4.15;;;;;;;-145.00;61.50;72949.28;5013226;28;20494;-74
2023/08/13 00:52:24;;;;;;;7.07;5.00;;;;;;;-145.00;62.05;72984.66;5004168;28;20403;-75
2023/08/13 00:54:52;;;;;;;4.75;3.70;;;;;;;-145.00;61.48;72968.00;4993475;28;20048;-75
2023/08/13 00:57:19;;;;;;;5.25;4.13;;;;;;;-145.00;60.77;72949.28;4996850;28;20137;-77
2023/08/13 00:59:45;;;;;;;5.20;4.25;;;;;;;-145.00;60.54;72938.88;5021779;28;20062;-75
2023/08/13 01:02:12;;;;;;;7.55;4.60;;;;;;;-145.00;60.48;72938.88;5031741;28;20497;-74
2023/08/13 01:04:39;;;;;;;8.05;4.28;;;;;;;-145.00;60.65;72943.03;5033012;28;20053;-74
2023/08/13 01:07:29;;;;;;;6.78;4.03;;;;;;;-145.00;60.79;72938.88;5032966;28;20045;-74
2023/08/13 01:10:09;;;;;;;6.53;3.80;;;;;;;-145.00;61.00;72947.19;5024063;28;20042;-75
2023/08/13 01:12:44;;;;;;;7.43;5.00;;;;;;;-145.00;60.71;72951.34;5013674;28;20120;-75
2023/08/13 01:15:16;;;;;;;4.95;3.72;;;;;;;-145.00;60.75;72959.69;5012472;28;20409;-74
2023/08/13 01:17:43;;;;;;;7.47;4.55;;;;;;;-145.00;60.98;72957.59;5010990;28;20080;-74
2023/08/13 01:20:11;;;;;;;7.13;4.00;;;;;;;-145.00;61.52;72947.19;5001162;28;20097;-74
2023/08/13 01:22:46;;;;;;;6.53;4.60;;;;;;;-145.00;61.57;72957.59;5008105;28;20513;-74
2023/08/13 01:25:13;;;;;;;5.45;3.92;;;;;;;-145.00;61.59;72968.00;5008291;28;20473;-76
2023/08/13 01:27:48;;;;;;;6.40;4.05;;;;;;;-145.00;61.24;72959.69;4993254;28;20049;-74
2023/08/13 01:30:20;;;;;;;7.53;4.65;;;;;;;-145.00;61.09;72955.50;5018773;28;20049;-74
2023/08/13 01:32:52;;;;;;;5.53;4.03;;;;;;;-145.00;61.29;72959.69;5028444;28;20049;-76
2023/08/13 01:35:22;;;;;;;7.43;4.55;;;;;;;-145.00;60.84;72959.69;4994189;28;20050;-75
2023/08/13 01:37:51;;;;;;;6.97;4.65;;;;;;;-145.00;61.13;72963.84;4992518;28;20042;-75
2023/08/13 01:40:27;;;;;;;6.75;4.30;;;;;;;-145.00;61.10;72965.94;4989187;28;20141;-76
2023/08/13 01:42:53;;;;;;;5.45;3.78;;;;;;;-145.00;61.41;72968.00;4993083;28;20054;-76
2023/08/13 01:45:20;;;;;;;6.70;4.55;;;;;;;-145.00;61.47;72968.00;4995709;28;20044;-76
2023/08/13 01:47:47;;;;;;;6.38;4.03;;;;;;;-145.00;61.31;72963.84;5012122;28;20056;-75
2023/08/13 01:50:14;;;;;;;8.98;4.60;;;;;;;-145.00;61.50;72963.84;5029360;28;20053;-75
2023/08/13 01:52:40;;;;;;;5.50;3.70;;;;;;;-145.00;62.19;72957.59;5031467;28;20049;-76
2023/08/13 01:55:09;;;;;;;4.47;3.53;;;;;;;-145.00;61.82;72963.84;5028171;28;20050;-76
2023/08/13 01:57:36;;;;;;;4.50;3.53;;;;;;;-145.00;61.68;72963.84;5010350;28;20049;-75
2023/08/13 02:00:02;;;;;;;5.15;3.72;;;;;;;-145.00;62.03;72963.84;5021935;28;20037;-75
2023/08/13 02:02:29;;;;;;;6.22;4.10;;;;;;;-145.00;61.91;72968.00;5018446;28;20037;-76
2023/08/13 02:04:55;;;;;;;5.07;3.80;;;;;;;-145.00;61.87;72974.25;5031130;28;20041;-76
2023/08/13 02:07:22;;;;;;;7.32;3.70;;;;;;;-145.00;62.07;72972.16;5030861;28;20115;-75
2023/08/13 02:09:48;;;;;;;4.53;3.60;;;;;;;-145.00;62.24;72980.50;5014930;28;20050;-75
2023/08/13 02:12:16;;;;;;;5.35;3.70;;;;;;;-145.00;62.04;72980.50;4996366;28;20561;-74
2023/08/13 02:14:42;;;;;;;4.90;3.60;;;;;;;-145.00;61.92;72988.81;4978580;28;20049;-76
2023/08/13 02:17:12;;;;;;;6.63;3.65;;;;;;;-145.00;62.06;72990.91;4976502;28;20063;-74
2023/08/13 02:19:39;;;;;;;5.28;3.83;;;;;;;-145.00;62.15;73001.31;4976288;28;20066;-74
2023/08/13 02:22:06;;;;;;;5.57;3.72;;;;;;;-145.00;62.29;72997.16;4986606;28;20090;-75
2023/08/13 02:24:32;;;;;;;5.75;4.00;;;;;;;-145.00;62.52;73005.47;4993533;28;20450;-74
2023/08/13 02:26:59;;;;;;;6.97;4.05;;;;;;;-145.00;62.83;73009.66;4975835;28;20062;-74
2023/08/13 02:29:26;;;;;;;6.15;3.95;;;;;;;-145.00;63.26;73022.13;4977989;28;20057;-76
2023/08/13 02:31:53;;;;;;;7.68;3.88;;;;;;;-145.00;63.56;73032.53;4997561;28;20064;-74
2023/08/13 02:34:19;;;;;;;7.50;4.15;;;;;;;-145.00;63.89;73030.47;5006058;28;20057;-74
2023/08/13 02:36:46;;;;;;;6.07;3.97;;;;;;;-145.00;63.84;73036.72;4991698;28;20047;-74
2023/08/13 02:39:12;;;;;;;8.07;4.55;;;;;;;-145.00;63.84;73034.63;4991068;28;20047;-75
2023/08/13 02:41:39;;;;;;;6.90;4.45;;;;;;;-145.00;64.15;73042.97;4978089;28;20047;-76
2023/08/13 02:44:05;;;;;;;6.45;4.72;;;;;;;-145.00;64.19;73042.97;4971599;28;20051;-75
2023/08/13 02:46:33;;;;;;;7.03;4.43;;;;;;;-145.00;64.42;73042.97;4986081;28;20049;-75
2023/08/13 02:49:00;;;;;;;6.32;4.45;;;;;;;-145.00;64.45;73051.28;4990981;28;20730;-76
2023/08/13 02:51:27;;;;;;;7.35;4.88;;;;;;;-145.00;64.68;73055.44;5002430;28;20042;-75
2023/08/13 02:53:54;;;;;;;6.40;4.93;;;;;;;-145.00;64.89;73065.84;5003299;28;20047;-75
2023/08/13 02:56:20;;;;;;;6.50;5.00;;;;;;;-145.00;64.89;73065.84;4979749;28;20039;-76
2023/08/13 02:58:47;;;;;;;8.45;4.88;;;;;;;-145.00;65.10;73072.09;5003682;28;20061;-75
2023/08/13 03:01:14;;;;;;;7.97;4.53;;;;;;;-145.00;65.39;73076.25;5029888;28;20421;-75
2023/08/13 03:03:42;;;;;;;7.22;5.28;;;;;;;-145.00;65.34;73076.25;5030034;28;20041;-74
2023/08/13 03:06:08;;;;;;;10.25;5.70;;;;;;;-145.00;65.25;73078.34;5029934;28;20054;-75
2023/08/13 03:08:35;;;;;;;8.02;5.47;;;;;;;-145.00;65.32;73076.25;5016119;28;20042;-75
2023/08/13 03:11:01;;;;;;;6.93;5.20;;;;;;;-145.00;65.29;73080.44;4989344;28;20415;-75
2023/08/13 03:13:28;;;;;;;9.60;5.70;;;;;;;-145.00;65.24;73084.59;5002289;28;20046;-75
2023/08/13 03:15:54;;;;;;;10.00;5.28;;;;;;;-145.00;65.32;73080.44;5002322;28;20048;-75
2023/08/13 03:18:21;;;;;;;7.85;5.13;;;;;;;-145.00;65.16;73074.19;5001424;28;20053;-75
2023/08/13 03:20:49;;;;;;;6.85;5.20;;;;;;;-145.00;65.26;73070.03;4986131;28;20035;-75
2023/08/13 03:23:15;;;;;;;8.00;5.70;;;;;;;-145.00;65.23;73067.94;4982954;28;20511;-75
2023/08/13 03:25:42;;;;;;;8.98;5.10;;;;;;;-145.00;65.47;73070.03;4990154;28;20046;-75
2023/08/13 03:28:08;;;;;;;6.40;4.97;;;;;;;-145.00;65.48;73063.78;4971043;28;20046;-75
2023/08/13 03:30:35;;;;;;;7.93;5.22;;;;;;;-145.00;65.43;73067.94;4998531;28;20042;-75
2023/08/13 03:33:01;;;;;;;9.02;5.10;;;;;;;-145.00;65.16;73055.44;4996622;28;20046;-75
2023/08/13 03:35:27;;;;;;;6.22;5.20;;;;;;;-145.00;65.26;73051.28;5006647;28;20041;-74
2023/08/13 03:37:55;;;;;;;7.80;5.30;;;;;;;-145.00;65.27;73047.13;4998690;28;20046;-75
2023/08/13 03:40:22;;;;;;;9.68;5.25;;;;;;;-145.00;64.93;73047.13;4990084;28;20061;-75
2023/08/13 03:42:48;;;;;;;8.25;5.10;;;;;;;-145.00;65.03;73047.13;5001497;28;20306;-74
2023/08/13 03:45:15;;;;;;;6.88;5.05;;;;;;;-145.00;65.09;73051.28;5009587;28;20057;-75
2023/08/13 03:47:42;;;;;;;6.32;4.90;;;;;;;-145.00;65.08;73047.13;5009973;28;20046;-75
2023/08/13 03:50:09;;;;;;;6.38;4.90;;;;;;;-145.00;65.40;73055.44;5009418;28;20057;-75
2023/08/13 03:52:36;;;;;;;6.38;5.13;;;;;;;-145.00;65.63;73070.03;5009785;28;20068;-75
2023/08/13 03:55:04;;;;;;;7.13;5.07;;;;;;;-145.00;65.01;73059.59;4998239;28;20050;-74
2023/08/13 03:57:31;;;;;;;6.97;4.82;;;;;;;-145.00;64.62;73051.28;4990312;28;20046;-75
2023/08/13 03:59:57;;;;;;;7.68;5.03;;;;;;;-145.00;64.58;73053.38;5010879;28;20045;-74
2023/08/13 04:02:23;;;;;;;8.05;5.40;;;;;;;-145.00;64.87;73061.69;5015034;28;20052;-74
2023/08/13 04:04:50;;;;;;;8.27;5.15;;;;;;;-145.00;64.98;73063.78;5029181;28;20304;-75
2023/08/13 04:07:16;;;;;;;7.05;5.20;;;;;;;-145.00;65.28;73067.94;5007179;28;20053;-75
2023/08/13 04:09:43;;;;;;;8.38;5.25;;;;;;;-145.00;65.30;73065.84;4990625;28;20045;-75
2023/08/13 04:12:11;;;;;;;7.55;5.30;;;;;;;-145.00;65.11;73067.94;4989832;28;20057;-75
2023/08/13 04:14:37;;;;;;;9.40;5.22;;;;;;;-145.00;64.85;73067.94;4990212;28;20047;-75
2023/08/13 04:17:04;;;;;;;5.85;4.68;;;;;;;-145.00;65.00;73072.09;4989817;28;20050;-74
2023/08/13 04:19:31;;;;;;;8.82;5.25;;;;;;;-145.00;64.95;73074.19;4977263;28;20050;-75
2023/08/13 04:21:57;;;;;;;7.45;5.45;;;;;;;-145.00;65.05;73076.25;4973019;28;20039;-75
2023/08/13 04:24:24;;;;;;;7.97;5.20;;;;;;;-145.00;65.23;73078.34;4974206;28;20050;-75
2023/08/13 04:26:52;;;;;;;7.88;4.97;;;;;;;-145.00;65.28;73084.59;4974346;28;20565;-75
2023/08/13 04:29:20;;;;;;;7.13;5.38;;;;;;;-145.00;65.37;73086.69;4989593;28;20564;-74
2023/08/13 04:31:47;;;;;;;8.65;4.88;;;;;;;-145.00;65.49;73078.34;5017497;28;20045;-75
2023/08/13 04:34:13;;;;;;;5.95;5.20;;;;;;;-145.00;65.40;73082.50;4995506;28;20051;-75
2023/08/13 04:36:40;;;;;;;8.10;4.80;;;;;;;-145.00;65.60;73084.59;4994637;28;20061;-75
2023/08/13 04:39:07;;;;;;;6.97;5.40;;;;;;;-145.00;65.48;73084.59;4994022;28;20065;-74
2023/08/13 04:41:34;;;;;;;6.50;5.45;;;;;;;-145.00;65.71;73092.91;4995633;28;20042;-74
2023/08/13 04:44:00;;;;;;;6.80;4.95;;;;;;;-145.00;65.76;73092.91;4977799;28;20050;-75
2023/08/13 04:46:28;;;;;;;5.75;4.90;;;;;;;-145.00;65.86;73088.75;4995070;28;20038;-75
2023/08/13 04:48:54;;;;;;;8.65;4.93;;;;;;;-145.00;65.95;73092.91;4995087;28;20129;-75
2023/08/13 04:51:21;;;;;;;7.45;5.03;;;;;;;-145.00;65.97;73080.44;4992483;28;20061;-75
2023/08/13 04:53:47;;;;;;;7.25;5.05;;;;;;;-145.00;65.85;73082.50;4976551;28;20054;-75
2023/08/13 04:56:14;;;;;;;7.13;5.15;;;;;;;-145.00;66.06;73086.69;5008346;28;20052;-74
2023/08/13 04:58:41;;;;;;;6.68;5.25;;;;;;;-145.00;65.85;73080.44;4982596;28;20043;-75
2023/08/13 05:01:08;;;;;;;9.75;5.68;;;;;;;-145.00;66.06;73076.25;5034554;28;20481;-75
2023/08/13 05:03:38;;;;;;;5.60;4.85;;;;;;;-145.00;66.16;73078.34;5041109;28;20045;-75
2023/08/13 05:06:05;;;;;;;7.00;5.00;;;;;;;-145.00;65.77;73067.94;5038269;28;20048;-74
2023/08/13 05:08:31;;;;;;;7.32;5.28;;;;;;;-145.00;65.54;73067.94;5000330;28;20046;-75
2023/08/13 05:10:58;;;;;;;6.43;4.97;;;;;;;-145.00;65.59;73061.69;5004652;28;20533;-74
2023/08/13 05:13:24;;;;;;;6.50;4.90;;;;;;;-145.00;65.89;73059.59;5001439;28;20042;-75
2023/08/13 05:15:51;;;;;;;8.30;5.63;;;;;;;-145.00;66.13;73055.44;5001040;28;20053;-75
2023/08/13 05:18:17;;;;;;;7.22;4.70;;;;;;;-145.00;66.08;73047.13;4992903;28;20142;-74
2023/08/13 05:20:46;;;;;;;5.53;4.53;;;;;;;-145.00;65.97;73036.72;4981641;28;20043;-74
2023/08/13 05:23:13;;;;;;;9.98;4.93;;;;;;;-145.00;65.73;73026.31;4989163;28;20054;-74
2023/08/13 05:25:39;;;;;;;7.57;4.90;;;;;;;-145.00;65.50;73022.13;4988002;28;20498;-75
2023/08/13 05:28:07;;;;;;;6.93;4.63;;;;;;;-145.00;65.66;73013.81;4977986;28;20049;-74
2023/08/13 05:30:35;;;;;;;7.00;4.63;;;;;;;-145.00;65.37;73005.47;4997704;28;20080;-74
2023/08/13 05:33:02;;;;;;;7.15;4.47;;;;;;;-145.00;65.43;72995.06;5010881;28;20050;-74
2023/08/13 05:35:28;;;;;;;6.70;4.32;;;;;;;-145.00;65.34;72988.81;5012042;28;20057;-75
2023/08/13 05:37:57;;;;;;;6.25;4.63;;;;;;;-145.00;65.36;72984.66;5012210;28;20046;-74
2023/08/13 05:40:23;;;;;;;5.60;4.05;;;;;;;-145.00;65.29;72972.16;5005526;28;20069;-73
2023/08/13 05:42:50;;;;;;;6.80;4.18;;;;;;;-145.00;65.50;72970.09;4992607;28;20048;-75
2023/08/13 05:45:17;;;;;;;6.88;4.75;;;;;;;-145.00;65.12;72959.69;4991982;28;20057;-73
2023/08/13 05:47:44;;;;;;;5.72;4.15;;;;;;;-145.00;64.94;72947.19;4992202;28;20039;-75
2023/08/13 05:50:10;;;;;;;7.35;4.53;;;;;;;-145.00;64.85;72940.94;4974536;28;20533;-75
2023/08/13 05:52:36;;;;;;;5.72;4.43;;;;;;;-145.00;65.46;72945.09;4978793;28;20065;-75
2023/08/13 05:55:05;;;;;;;5.68;4.13;;;;;;;-145.00;65.14;72934.69;4991003;28;20048;-75
2023/08/13 05:57:32;;;;;;;7.53;4.55;;;;;;;-145.00;64.94;72922.22;4972735;28;20129;-75
2023/08/13 05:59:59;;;;;;;7.65;4.28;;;;;;;-145.00;64.48;72909.72;5002540;28;20156;-75
2023/08/13 06:02:26;;;;;;;5.30;4.38;;;;;;;-145.00;63.88;72890.97;5031070;28;20037;-76
2023/08/13 06:04:53;;;;;;;7.90;4.38;;;;;;;-145.00;63.56;72886.81;5023524;28;20096;-76
2023/08/13 06:07:19;;;;;;;5.57;3.95;;;;;;;-145.00;63.53;72868.09;5009031;28;20052;-75
2023/08/13 06:09:45;;;;;;;6.90;3.88;;;;;;;-145.00;63.04;72863.91;4992156;28;20046;-76
2023/08/13 06:12:13;;;;;;;4.43;4.00;;;;;;;-145.00;63.06;72853.50;5007609;28;20049;-75
2023/08/13 06:14:40;;;;;;;5.40;3.55;;;;;;;-145.00;62.63;72843.09;4989910;28;20055;-74
2023/08/13 06:17:06;;;;;;;6.40;4.22;;;;;;;-145.00;62.66;72826.44;5010848;28;20050;-79
2023/08/13 06:19:33;;;;;;;6.05;3.58;;;;;;;-145.00;62.29;72820.19;4995555;28;20054;-79
2023/08/13 06:21:59;;;;;;;5.75;3.78;;;;;;;-145.00;62.16;72805.63;5011389;28;20058;-78
2023/08/13 06:24:26;;;;;;;10.05;4.05;;;;;;;-145.00;62.76;72813.94;5005959;28;20057;-80
2023/08/13 06:26:52;;;;;;;6.28;3.85;;;;;;;-145.00;62.22;72795.22;4988516;28;20494;-81
2023/08/13 06:29:20;;;;;;;5.68;3.70;;;;;;;-145.00;61.62;72786.88;4997972;28;20424;-78
2023/08/13 06:31:46;;;;;;;4.30;3.75;;;;;;;-145.00;61.77;72780.66;5035347;28;20053;-77
2023/08/13 06:34:14;;;;;;;4.68;3.30;;;;;;;-145.00;61.45;72764.00;5034210;28;20056;-76
2023/08/13 06:36:41;;;;;;;6.97;4.00;;;;;;;-145.00;60.76;72747.34;5035591;28;20049;-79
2023/08/13 06:39:08;;;;;;;6.85;3.90;;;;;;;-145.00;60.53;72739.00;5006920;28;20140;-79
2023/08/13 06:41:34;;;;;;;6.03;3.90;;;;;;;-145.00;59.78;72714.03;5020102;28;20049;-80
2023/08/13 06:44:01;;;;;;;5.07;3.53;;;;;;;-145.00;59.76;72693.22;5033029;28;20053;-81
2023/08/13 06:46:29;;;;;;;6.03;4.35;;;;;;;-145.00;59.59;72689.06;5017083;28;20045;-81
2023/08/13 06:48:55;;;;;;;6.57;3.50;;;;;;;-145.00;59.60;72693.22;5020846;28;20045;-79
2023/08/13 06:51:22;;;;;;;4.93;3.60;;;;;;;-145.00;59.88;72703.63;5008500;28;20053;-80
2023/08/13 06:53:48;;;;;;;6.40;3.60;;;;;;;-145.00;59.80;72680.72;5011282;28;20043;-79
2023/08/13 06:56:15;;;;;;;7.43;4.45;;;;;;;-145.00;59.20;72668.22;4996189;28;20050;-81
2023/08/13 06:58:41;;;;;;;7.63;4.15;;;;;;;-145.00;58.97;72655.75;5001877;28;20394;-73
2023/08/13 07:01:07;;;;;;;7.18;3.65;;;;;;;-145.00;57.79;72651.59;5025775;28;20168;-73
2023/08/13 07:03:35;;;;;;;6.05;4.00;;;;;;;-145.00;58.33;72645.34;4981684;28;20043;-73
2023/08/13 07:06:03;;;;;;;5.55;3.40;;;;;;;-145.00;57.56;72634.94;4978013;28;20046;-73
2023/08/13 07:08:31;;;;;;;5.15;3.55;;;;;;;-145.00;56.73;72620.34;4979971;28;20649;-73
2023/08/13 07:10:59;;;;;;;4.53;3.10;;;;;;;-145.00;56.03;72614.09;4981473;28;20414;-73
2023/08/13 07:13:25;;;;;;;5.68;3.60;;;;;;;-145.00;55.77;72607.88;4979678;28;20050;-73
2023/08/13 07:15:52;;;;;;;4.78;3.30;;;;;;;-145.00;56.44;72609.94;4998496;28;20607;-73
2023/08/13 07:18:18;;;;;;;5.30;3.60;;;;;;;-145.00;57.68;72620.34;5003513;28;20053;-73
2023/08/13 07:20:46;;;;;;;4.10;3.33;;;;;;;-145.00;57.63;72597.47;4988665;28;20053;-74
2023/08/13 07:23:13;;;;;;;5.03;3.70;;;;;;;-145.00;57.28;72568.31;5003483;28;20046;-73
2023/08/13 07:25:39;;;;;;;6.03;3.67;;;;;;;-145.00;55.04;72541.25;4983822;28;20057;-73
2023/08/13 07:28:06;;;;;;;6.38;3.70;;;;;;;-145.00;56.28;72555.81;4984043;28;20060;-73
2023/08/13 07:30:33;;;;;;;5.60;3.70;;;;;;;-145.00;55.62;72522.53;5009125;28;20045;-73
2023/08/13 07:32:59;;;;;;;4.13;3.08;;;;;;;-145.00;54.52;72507.94;5026473;28;20052;-73
2023/08/13 07:35:26;;;;;;;8.30;3.63;;;;;;;-145.00;54.91;72524.59;5026220;28;20041;-73
2023/08/13 07:37:54;;;;;;;5.10;3.58;;;;;;;-145.00;53.34;72472.56;5004377;28;20046;-74
2023/08/13 07:40:21;;;;;;;5.88;3.45;;;;;;;-145.00;52.21;72418.44;4986590;28;20588;-75
2023/08/13 07:42:47;;;;;;;4.18;3.00;;;;;;;-145.00;50.52;72347.66;5008063;28;20045;-75
2023/08/13 07:45:14;;;;;;;5.30;3.20;;;;;;;-145.00;50.05;72303.97;5025913;28;20574;-71
2023/08/13 07:47:40;;;;;;;4.32;3.00;;;;;;;-145.00;48.38;72264.41;5010090;28;20057;-73
2023/08/13 07:50:07;;;;;;;5.60;3.38;;;;;;;-145.00;48.60;72276.91;4967807;28;20054;-73
2023/08/13 07:52:35;;;;;;;4.80;3.15;;;;;;;-145.00;48.84;72297.72;4968138;28;20057;-72
2023/08/13 07:55:05;;;;;;;4.38;3.13;;;;;;;-145.00;48.97;72322.69;4999245;28;20053;-75
2023/08/13 07:57:31;;;;;;;3.97;2.80;;;;;;;-145.00;48.59;72326.84;4988635;28;20525;-73
2023/08/13 07:59:58;;;;;;;3.92;3.00;;;;;;;-145.00;49.13;72343.50;4992871;28;20042;-74
2023/08/13 08:02:24;;;;;;;5.22;3.00;;;;;;;-145.00;48.52;72349.75;5001445;28;20493;-75
2023/08/13 08:04:51;;;;;;;4.40;2.83;;;;;;;-145.00;48.43;72364.31;5006709;28;20414;-73
2023/08/13 08:07:18;;;;;;;3.72;2.90;;;;;;;-145.00;48.99;72374.72;4990163;28;20051;-73
2023/08/13 08:09:45;;;;;;;4.47;3.05;;;;;;;-145.00;49.00;72391.38;4991174;28;20054;-73
2023/08/13 08:12:12;;;;;;;4.03;3.00;;;;;;;-145.00;49.26;72389.28;4987610;28;20061;-73
2023/08/13 08:14:39;;;;;;;4.07;3.17;;;;;;;-145.00;50.02;72401.78;4971456;28;20051;-74
2023/08/13 08:17:07;;;;;;;4.53;3.13;;;;;;;-145.00;49.45;72397.63;4971280;28;20072;-73
2023/08/13 08:19:33;;;;;;;6.18;3.03;;;;;;;-145.00;50.24;72397.63;4971510;28;20078;-73
2023/08/13 08:22:00;;;;;;;3.85;3.30;;;;;;;-145.00;50.37;72416.34;4971427;28;20515;-74
2023/08/13 08:24:26;;;;;;;8.48;3.30;;;;;;;-145.00;50.70;72401.78;4979565;28;20045;-72
2023/08/13 08:26:53;;;;;;;8.52;2.97;;;;;;;-145.00;50.49;72391.38;4975481;28;20051;-73
2023/08/13 08:29:21;;;;;;;5.13;3.20;;;;;;;-145.00;50.43;72378.88;4984832;28;20050;-73
2023/08/13 08:31:47;;;;;;;4.60;2.90;;;;;;;-145.00;50.00;72328.94;5029628;28;20049;-72
2023/08/13 08:34:14;;;;;;;7.05;3.05;;;;;;;-145.00;48.80;72256.09;5002462;28;20053;-73
2023/08/13 08:36:41;;;;;;;5.68;3.33;;;;;;;-145.00;47.46;72226.94;4992123;28;20046;-73
2023/08/13 08:39:08;;;;;;;4.78;3.08;;;;;;;-145.00;46.56;72214.44;4982055;28;20150;-74
2023/08/13 08:41:37;;;;;;;4.65;3.45;;;;;;;-145.00;47.64;72270.66;4986001;28;20052;-73
2023/08/13 08:44:08;;;;;;;4.25;3.10;;;;;;;-145.00;47.42;72235.25;4970506;28;20058;-73
2023/08/13 08:46:37;;;;;;;4.53;3.00;;;;;;;-145.00;47.47;72185.31;4983364;28;20056;-74
2023/08/13 08:49:04;;;;;;;6.40;3.30;;;;;;;-145.00;46.40;72170.75;4996565;28;20049;-73
2023/08/13 08:51:31;;;;;;;4.60;3.20;;;;;;;-145.00;45.82;72131.19;5001976;28;20045;-73
2023/08/13 08:53:59;;;;;;;5.15;3.08;;;;;;;-145.00;45.35;72110.38;5002054;28;20042;-74
2023/08/13 08:56:26;;;;;;;7.50;3.55;;;;;;;-145.00;44.55;72077.09;4978296;28;20505;-74
2023/08/13 08:58:52;;;;;;;4.63;3.28;;;;;;;-145.00;44.85;72089.56;4990051;28;20049;-73
2023/08/13 09:01:19;;;;;;;5.32;3.33;;;;;;;-145.00;44.90;72081.25;5001026;28;20434;-76
2023/08/13 09:03:46;;;;;;;5.18;3.40;;;;;;;-145.00;44.28;72064.59;5023681;28;20045;-73
2023/08/13 09:06:13;;;;;;;6.32;3.10;;;;;;;-145.00;46.19;72039.63;5028929;28;20424;-73
2023/08/13 09:08:39;;;;;;;7.57;3.55;;;;;;;-145.00;44.15;72068.75;5028317;28;20041;-74
2023/08/13 09:11:06;;;;;;;5.22;3.10;;;;;;;-145.00;43.83;71968.84;5000406;28;20051;-73
2023/08/13 09:13:34;;;;;;;5.53;2.92;;;;;;;-145.00;42.18;71966.78;4981714;28;20597;-74
2023/08/13 09:16:01;;;;;;;6.82;3.47;;;;;;;-145.00;43.26;71977.19;4989994;28;20137;-73
2023/08/13 09:18:27;;;;;;;3.58;2.67;;;;;;;-145.00;43.67;71989.66;4989698;28;20042;-74
2023/08/13 09:20:56;;;;;;;5.25;3.13;;;;;;;-145.00;43.99;72002.16;4989884;28;20049;-73
2023/08/13 09:23:24;;;;;;;5.45;3.50;;;;;;;-145.00;43.46;72002.16;4990540;28;20054;-73
2023/08/13 09:25:54;;;;;;;5.57;3.53;;;;;;;-145.00;43.73;72022.97;4981560;28;20042;-73
2023/08/13 09:28:21;;;;;;;5.30;3.53;;;;;;;-145.00;44.36;72035.44;4986605;28;20514;-73
2023/08/13 09:30:48;;;;;;;6.03;3.30;;;;;;;-145.00;44.09;72039.63;5016697;28;20049;-73
2023/08/13 09:33:16;;;;;;;5.18;3.10;;;;;;;-145.00;44.10;72043.78;5027969;28;20744;-73
2023/08/13 09:35:44;;;;;;;4.93;3.75;;;;;;;-145.00;44.51;72058.34;5012918;28;20043;-73
2023/08/13 09:38:12;;;;;;;4.40;3.08;;;;;;;-145.00;45.80;72043.78;4982970;28;20074;-73
2023/08/13 09:40:39;;;;;;;5.65;3.38;;;;;;;-145.00;44.28;72035.44;4970250;28;20050;-73
2023/08/13 09:43:08;;;;;;;6.50;3.00;;;;;;;-145.00;44.87;72002.16;4987549;28;20505;-74
2023/08/13 09:45:35;;;;;;;6.03;3.50;;;;;;;-145.00;44.69;72022.97;5029111;28;20075;-74
2023/08/13 09:48:05;;;;;;;4.70;3.10;;;;;;;-145.00;45.60;72106.22;5000708;28;20447;-74
2023/08/13 09:50:34;;;;;;;4.32;3.25;;;;;;;-145.00;45.62;72083.31;4971155;28;20057;-74
2023/08/13 09:53:03;;;;;;;6.28;3.70;;;;;;;-145.00;45.64;72079.16;4970828;28;20055;-74
2023/08/13 09:55:34;;;;;;;5.05;3.40;;;;;;;-145.00;46.93;72052.09;4972373;28;20446;-73
2023/08/13 09:58:02;;;;;;;5.20;3.17;;;;;;;-145.00;45.27;72031.28;4989887;28;20066;-76
2023/08/13 10:00:29;;;;;;;5.00;3.15;;;;;;;-145.00;46.41;72025.03;4994966;28;20589;-74
2023/08/13 10:02:56;;;;;;;4.15;3.10;;;;;;;-145.00;45.12;72008.41;5026084;28;20045;-73
2023/08/13 10:05:22;;;;;;;8.27;3.22;;;;;;;-145.00;45.99;71981.34;5029392;28;20051;-74
2023/08/13 10:07:49;;;;;;;5.07;3.55;;;;;;;-145.00;44.42;71952.19;5030751;28;20041;-74
2023/08/13 10:10:17;;;;;;;5.53;3.30;;;;;;;-145.00;44.36;71914.72;5020298;28;20057;-73
2023/08/13 10:12:45;;;;;;;4.32;3.00;;;;;;;-145.00;43.29;71862.69;4989233;28;20046;-74
2023/08/13 10:15:12;;;;;;;5.68;3.25;;;;;;;-145.00;43.24;71850.22;4988948;28;20070;-74
2023/08/13 10:17:39;;;;;;;5.70;3.42;;;;;;;-145.00;42.89;71827.31;4988843;28;20048;-73
2023/08/13 10:20:07;;;;;;;4.50;2.85;;;;;;;-145.00;41.52;71769.03;4988063;28;20074;-73
2023/08/13 10:22:35;;;;;;;5.40;3.08;;;;;;;-145.00;41.17;71733.66;4971253;28;20422;-74
2023/08/13 10:25:03;;;;;;;4.55;3.10;;;;;;;-145.00;40.79;71742.00;4968168;28;20133;-74
2023/08/13 10:27:30;;;;;;;4.55;3.13;;;;;;;-145.00;42.33;71794.03;4968976;28;20569;-75
2023/08/13 10:30:16;;;;;;;4.80;2.85;;;;;;;-145.00;41.52;71737.84;4990854;28;20046;-75
2023/08/13 10:32:49;;;;;;;5.15;3.05;;;;;;;-145.00;41.17;71731.59;5026930;28;20586;-74
2023/08/13 10:35:26;;;;;;;5.60;2.90;;;;;;;-145.00;40.39;71692.03;4987597;28;20050;-76
2023/08/13 10:37:53;;;;;;;6.25;3.08;;;;;;;-145.00;40.04;71683.72;4988142;28;20055;-74
2023/08/13 10:40:21;;;;;;;4.22;2.95;;;;;;;-145.00;39.66;71677.47;4987333;28;20053;-75
2023/08/13 10:42:54;;;;;;;4.97;3.05;;;;;;;-145.00;39.84;71667.06;4987948;28;20045;-74
2023/08/13 10:45:24;;;;;;;4.95;3.00;;;;;;;-145.00;39.90;71679.56;4986652;28;20057;-77
2023/08/13 10:47:53;;;;;;;5.65;2.95;;;;;;;-145.00;39.53;71677.47;4987900;28;20038;-75
2023/08/13 10:50:28;;;;;;;3.85;2.83;;;;;;;-145.00;39.87;71710.78;4987906;28;20511;-76
2023/08/13 10:53:02;;;;;;;6.70;3.30;;;;;;;-145.00;40.78;71769.03;4987796;28;20054;-75
2023/08/13 10:55:30;;;;;;;4.70;3.08;;;;;;;-145.00;41.20;71783.63;4987944;28;20109;-75
2023/08/13 10:57:57;;;;;;;6.95;3.50;;;;;;;-145.00;42.08;71833.56;4987901;28;20051;-76
2023/08/13 11:00:27;;;;;;;7.95;3.30;;;;;;;-145.00;42.50;71860.63;5016623;28;20049;-74
2023/08/13 11:02:55;;;;;;;6.97;3.25;;;;;;;-145.00;42.23;71831.47;5021553;28;20053;-76
2023/08/13 11:05:22;;;;;;;5.80;2.80;;;;;;;-145.00;41.67;71829.41;5017357;28;20046;-75
2023/08/13 11:07:50;;;;;;;5.18;3.20;;;;;;;-145.00;40.90;71789.88;5002923;28;20409;-75
2023/08/13 11:10:19;;;;;;;4.70;3.00;;;;;;;-145.00;40.97;71760.72;4994274;28;20043;-74
2023/08/13 11:12:49;;;;;;;5.93;3.15;;;;;;;-145.00;41.23;71754.47;4988056;28;20061;-73
2023/08/13 11:15:16;;;;;;;4.57;3.22;;;;;;;-145.00;41.29;71762.81;4987986;28;20130;-74
2023/08/13 11:17:52;;;;;;;7.25;3.22;;;;;;;-145.00;41.65;71739.91;4979701;28;20437;-75